MSC Bettina — HPFG — position and weather

sailwx.info

Track history (hours):
 
Tides and Currents Weather Stations Pressure Air Temp Water Temp Dewpoint Dewpoint Depression Visibility Wind Speed Wind Dir Waves Ship Positions

MSC Bettina

Last reported at 2016-Sep-27 00:34 UTC. Time now 2016-Sep-27 10:29 UTC.
Position N 01°17' E 103°46'.

Length 366 m; draft 13.5 m.

Type: Ship (hazmat cat A). MMSI: 352361000.

Date/timePositionNaut miles runAvg speedWind from/ knotsBaromVisibWave heightAir tempDewpointWater temp
2016-Sep-27 00:34N 01°17' E 103°46'21 5.4
2016-Sep-26 20:33N 01°16' E 104°07'  
2016-Sep-22 20:33N 22°28' E 113°53'3 0.4
2016-Sep-22 12:33N 22°25' E 113°53'262 6.1
2016-Sep-20 17:33N 24°23' E 118°08'7 2.4
2016-Sep-20 14:33N 24°27' E 118°01'0 0.0
2016-Sep-20 13:33N 24°27' E 118°01'0 0.0
2016-Sep-20 10:33N 24°27' E 118°01'0 0.0
2016-Sep-20 08:33N 24°27' E 118°01'2 1.7
2016-Sep-20 07:33N 24°26' E 118°03'8 8.4
2016-Sep-20 06:33N 24°21' E 118°10'34 8.4
2016-Sep-20 02:31N 24°18' E 118°47'  
Track history (hours):
 
Tides and Currents Weather Stations Pressure Air Temp Water Temp Dewpoint Dewpoint Depression Visibility Wind Speed Wind Dir Waves Ship Positions

MSC Bettina

Last reported at 2016-Sep-27 00:34 UTC. Time now 2016-Sep-27 10:29 UTC.
Position N 01°17' E 103°46'.

Length 366 m; draft 13.5 m.

Type: Ship (hazmat cat A). MMSI: 352361000.

Date/timePositionNaut miles runAvg speedWind from/ knotsBaromVisibWave heightAir tempDewpointWater temp
2016-Sep-27 00:34N 01°17' E 103°46'21 5.4
2016-Sep-26 20:33N 01°16' E 104°07'  
2016-Sep-22 20:33N 22°28' E 113°53'3 0.4
2016-Sep-22 12:33N 22°25' E 113°53'262 6.1
2016-Sep-20 17:33N 24°23' E 118°08'7 2.4
2016-Sep-20 14:33N 24°27' E 118°01'0 0.0
2016-Sep-20 13:33N 24°27' E 118°01'0 0.0
2016-Sep-20 10:33N 24°27' E 118°01'0 0.0
2016-Sep-20 08:33N 24°27' E 118°01'2 1.7
2016-Sep-20 07:33N 24°26' E 118°03'8 8.4
2016-Sep-20 06:33N 24°21' E 118°10'34 8.4
2016-Sep-20 02:31N 24°18' E 118°47'  

Dump ship's entire track history